Chalmette, LA (70043)

6:52 AM CDT on September 02, 2014 (GMT -0500)
HOV/BCO/BCEL | Change Station
CLOSE
Current Station
Personal Weather Station
Location: Belle Chasse, LA
Elevation: 36 ft
Nearby Weather Stations

Elev 36 ft 29.89 °N, 89.98 °W | Updated 33 seconds ago

Overcast
Overcast
77.2 °F
Feels Like 78 °F
N
0.0
Wind Variable Wind from SSW
Gusts 0.0 mph

Today
High -- | Low -- °F
--% Chance of Precip.
Yesterday
High -- | Low -- °F
Precip. -- in
6:37 AM 7:21 PM
Waxing Crescent, 50% visible
Pressure 30.02 in
Visibility 10.0 miles
Clouds Few 6000 ft
Scattered Clouds 7500 ft
Mostly Cloudy 10000 ft
Heat Index 78 °F
Dew Point 76 °F
Humidity 96%
Rainfall 0.00 in
Snow Depth Not available.
UV 0 out of 12
Pollen 8.40 out of 12
Ozone Good
PM2.5 Good
Flu Activity Not available.
METAR KNEW 021053Z 00000KT 10SM FEW060 SCT075 BKN100 26/24 A3004 RMK AO2 RAB30E51 SLP165 P0003 T02560244 $

More Conditions Fewer Conditions

Pressure 30.02 in
Visibility 10.0 miles
Clouds Few 6000 ft
Scattered Clouds 7500 ft
Mostly Cloudy 10000 ft
Heat Index 78 °F
Dew Point 76 °F
Humidity 96%
Rainfall 0.00 in
Snow Depth Not available.
UV 0 out of 12
Pollen 8.40 out of 12
Ozone Good
PM2.5 Good
Flu Activity Not available.
METAR KNEW 021053Z 00000KT 10SM FEW060 SCT075 BKN100 26/24 A3004 RMK AO2 RAB30E51 SLP165 P0003 T02560244 $

More Conditions Fewer Conditions

10-Day Weather Forecast

Almanac

Astronomy

Sep. 02, 2014 Rise Set
Actual Time 6:37 AM CDT 7:21 PM CDT
Civil Twilight 6:13 AM CDT 7:45 PM CDT
Nautical Twilight 5:44 AM CDT 8:13 PM CDT
Astronomical Twilight 5:15 AM CDT 8:43 PM CDT
Moon 1:51 PM CDT No Moon Set
Length of Visible Light 13h 32m
Length of Day
12h 43m
Tomorrow will be 1m 45s shorter.
Waxing Crescent, 50% of the Moon is Illuminated
Today
Waxing Crescent
Sep 8
Full
Sep 15
Last Quarter
Sep 24
New
Oct 1
First Quarter

Today's Extremes

State Highs State Lows

Community

WunderPhotos

Upload Photos

1,749,621 photos uploaded!

WunderBlogs® & News

By Dr. Jeff Masters
Director of Meteorology, Weather Underground
By Kari Strenfel
Meteorologist, Weather Underground
By Christopher C. Burt
Weather Historian, Weather Underground
September 2, 2014
September 2, 2014
September 2, 2014

Nearby

Air Quality

  Air Quality AQ Index Pollutant
Yesterday Good
PM2.5
Yesterday Good
OZONE
Current Good
PM2.5
Current Good
OZONE
Tuesday Good
PM2.5
Tuesday Good
OZONE
Wednesday Good
PM2.5
Wednesday Good
OZONE

Snow Depth

Station Depth Elevation
No new snow has been reported.

Earthquake Activity

City Distance Mag. Time & Date
No recent earthquake activity has been reported nearby.
Minimum magnitude displayed is 2.5.

Coastal Water Temperatures

Place Temperature
Shell Beach, LA 81.0 °F
New Canal, LA 81.0 °F

Nearby Weather Stations